SEGVS ESNU-ESNU

Flight info

Callsign SEGVS
Flight time 0h 27m
Altitude
Route
Aircraft P28A

Departure

Time 2026-04-28 18:21
Airport Umeå Airport (ESNU)

Arrival

Time 2026-04-28 18:48
Airport Umeå Airport (ESNU)
Time Latitude Longitude Altitude Speed Heading
2026-04-28 18:12 63.78870 20.29342 6 ft 0 kts 248°
2026-04-28 18:16 63.78869 20.29341 6 ft 0 kts 246°
2026-04-28 18:16 63.78859 20.29288 7 ft 6 kts 245°
2026-04-28 18:16 63.78820 20.29159 7 ft 13 kts 225°
2026-04-28 18:17 63.78831 20.28981 7 ft 15 kts 316°
2026-04-28 18:17 63.78915 20.28811 10 ft 17 kts 320°
2026-04-28 18:17 63.79013 20.28618 11 ft 19 kts 315°
2026-04-28 18:17 63.79116 20.28400 13 ft 20 kts 317°
2026-04-28 18:18 63.79235 20.28180 12 ft 23 kts 312°
2026-04-28 18:18 63.79359 20.27970 13 ft 16 kts 327°
2026-04-28 18:18 63.79349 20.27942 13 ft 0 kts 139°
2026-04-28 18:20 63.79347 20.27946 13 ft 8 kts 137°
2026-04-28 18:20 63.79130 20.28380 35 ft 66 kts 137°
2026-04-28 18:20 63.78773 20.29147 281 ft 71 kts 130°
2026-04-28 18:21 63.78425 20.29943 543 ft 73 kts 126°
2026-04-28 18:21 63.78270 20.31024 775 ft 74 kts 70°
2026-04-28 18:21 63.78634 20.31590 1004 ft 70 kts 355°
2026-04-28 18:21 63.79094 20.31097 1150 ft 78 kts 326°
2026-04-28 18:22 63.79503 20.30250 1296 ft 84 kts 317°
2026-04-28 18:22 63.79874 20.29199 1445 ft 87 kts 309°
2026-04-28 18:22 63.80098 20.27934 1632 ft 89 kts 287°
2026-04-28 18:22 63.80087 20.26428 1713 ft 97 kts 273°
2026-04-28 18:23 63.80000 20.24912 1835 ft 98 kts 269°
2026-04-28 18:23 63.79874 20.23410 1904 ft 100 kts 267°
2026-04-28 18:23 63.79724 20.21864 1975 ft 100 kts 268°
2026-04-28 18:23 63.79551 20.20292 2021 ft 102 kts 264°
2026-04-28 18:24 63.79343 20.18663 2012 ft 109 kts 263°
2026-04-28 18:24 63.79203 20.17560 2023 ft 110 kts 263°
2026-04-28 18:24 63.78984 20.15261 1984 ft 111 kts 268°
2026-04-28 18:24 63.78827 20.13554 1989 ft 111 kts 265°
2026-04-28 18:25 63.78643 20.11825 1980 ft 113 kts 264°
2026-04-28 18:25 63.78439 20.10099 1994 ft 112 kts 263°
2026-04-28 18:25 63.78207 20.08396 1972 ft 115 kts 261°
2026-04-28 18:26 63.77739 20.04955 1958 ft 115 kts 262°
2026-04-28 18:26 63.77522 20.03191 1960 ft 114 kts 265°
2026-04-28 18:26 63.77350 20.01462 1948 ft 114 kts 267°
2026-04-28 18:26 63.77253 19.99674 1958 ft 110 kts 278°
2026-04-28 18:27 63.77323 19.97974 1982 ft 109 kts 290°
2026-04-28 18:27 63.77564 19.96340 2041 ft 103 kts 303°
2026-04-28 18:27 63.77871 19.94919 2111 ft 100 kts 307°
2026-04-28 18:27 63.78292 19.93710 2119 ft 97 kts 324°
2026-04-28 18:28 63.78789 19.92669 2160 ft 97 kts 326°
2026-04-28 18:28 63.79269 19.91628 2231 ft 95 kts 320°
2026-04-28 18:28 63.79754 19.90645 2333 ft 93 kts 326°
2026-04-28 18:28 63.80264 19.89715 2425 ft 94 kts 326°
2026-04-28 18:29 63.80777 19.88722 2452 ft 100 kts 324°
2026-04-28 18:29 63.81318 19.87768 2500 ft 98 kts 332°
2026-04-28 18:29 63.81894 19.86855 2497 ft 100 kts 331°
2026-04-28 18:29 63.82467 19.85937 2477 ft 103 kts 330°
2026-04-28 18:30 63.83063 19.84970 2426 ft 105 kts 330°
2026-04-28 18:30 63.83489 19.84445 2432 ft 102 kts 342°
2026-04-28 18:30 63.84376 19.83810 2453 ft 98 kts 350°
2026-04-28 18:30 63.85040 19.83604 2500 ft 96 kts 357°
2026-04-28 18:31 63.85729 19.83527 2472 ft 99 kts
2026-04-28 18:31 63.86407 19.83544 2483 ft 99 kts
2026-04-28 18:31 63.87103 19.83582 2467 ft 99 kts
2026-04-28 18:31 63.87797 19.83648 2451 ft 102 kts
2026-04-28 18:32 63.88516 19.83520 2488 ft 102 kts 349°
2026-04-28 18:32 63.89140 19.82739 2508 ft 107 kts 323°
2026-04-28 18:32 63.89556 19.81286 2525 ft 113 kts 301°
2026-04-28 18:32 63.89864 19.79601 2417 ft 117 kts 300°
2026-04-28 18:33 63.90156 19.77936 2445 ft 110 kts 303°
2026-04-28 18:33 63.90250 19.76204 2506 ft 116 kts 268°
2026-04-28 18:33 63.89817 19.74555 2435 ft 133 kts 228°
2026-04-28 18:33 63.89016 19.73549 2504 ft 128 kts 200°
2026-04-28 18:34 63.88124 19.73270 2468 ft 132 kts 175°
2026-04-28 18:34 63.87238 19.73792 2434 ft 130 kts 150°
2026-04-28 18:34 63.86467 19.74788 2470 ft 126 kts 144°
2026-04-28 18:34 63.85703 19.75783 2462 ft 129 kts 143°
2026-04-28 18:35 63.84942 19.76850 2493 ft 127 kts 142°
2026-04-28 18:35 63.84224 19.78004 2510 ft 126 kts 135°
2026-04-28 18:35 63.83560 19.79297 2521 ft 125 kts 128°
2026-04-28 18:35 63.82937 19.80726 2485 ft 128 kts 129°
2026-04-28 18:36 63.82299 19.82086 2521 ft 126 kts 137°
2026-04-28 18:36 63.81479 19.83078 2431 ft 134 kts 154°
2026-04-28 18:36 63.80598 19.83736 2439 ft 133 kts 159°
2026-04-28 18:36 63.79701 19.84276 2479 ft 131 kts 165°
2026-04-28 18:37 63.78806 19.84729 2458 ft 133 kts 163°
2026-04-28 18:37 63.77898 19.85289 2472 ft 131 kts 160°
2026-04-28 18:37 63.77029 19.85910 2466 ft 132 kts 156°
2026-04-28 18:37 63.76239 19.86904 2471 ft 126 kts 133°
2026-04-28 18:38 63.75678 19.88352 2499 ft 121 kts 119°
2026-04-28 18:38 63.75259 19.89996 2448 ft 120 kts 103°
2026-04-28 18:38 63.75128 19.91777 2397 ft 111 kts 81°
2026-04-28 18:38 63.75198 19.93460 2300 ft 101 kts 72°
2026-04-28 18:39 63.75362 19.94983 2200 ft 101 kts 65°
2026-04-28 18:39 63.75551 19.96357 2139 ft 81 kts 61°
2026-04-28 18:39 63.75808 19.97612 2047 ft 94 kts 51°
2026-04-28 18:39 63.76157 19.98909 2002 ft 102 kts 49°
2026-04-28 18:40 63.76589 20.00250 1962 ft 105 kts 49°
2026-04-28 18:40 63.76978 20.01614 1972 ft 102 kts 51°
2026-04-28 18:40 63.77343 20.02954 1999 ft 100 kts 50°
2026-04-28 18:40 63.77712 20.04288 2006 ft 100 kts 51°
2026-04-28 18:41 63.78077 20.05604 2020 ft 96 kts 50°
2026-04-28 18:41 63.78416 20.06870 2061 ft 93 kts 51°
2026-04-28 18:41 63.78722 20.08046 2027 ft 91 kts 51°
2026-04-28 18:41 63.79032 20.09266 2007 ft 96 kts 51°
2026-04-28 18:42 63.79362 20.10601 2026 ft 96 kts 57°
2026-04-28 18:42 63.79457 20.12180 1969 ft 107 kts 85°
2026-04-28 18:42 63.79268 20.13848 1967 ft 112 kts 103°
2026-04-28 18:42 63.78887 20.15441 1940 ft 117 kts 114°
2026-04-28 18:43 63.78404 20.16957 1953 ft 116 kts 119°
2026-04-28 18:43 63.77905 20.18400 1962 ft 116 kts 121°
2026-04-28 18:43 63.77385 20.19798 1977 ft 116 kts 121°
2026-04-28 18:43 63.76855 20.21198 1971 ft 116 kts 121°
2026-04-28 18:44 63.76357 20.22634 1972 ft 116 kts 118°
2026-04-28 18:44 63.75404 20.25585 1949 ft 115 kts 113°
2026-04-28 18:44 63.74999 20.27056 1923 ft 102 kts 111°
2026-04-28 18:45 63.74731 20.28408 1849 ft 90 kts 93°
2026-04-28 18:45 63.74715 20.29737 1755 ft 79 kts 65°
2026-04-28 18:45 63.74950 20.30759 1684 ft 72 kts 49°
2026-04-28 18:45 63.75250 20.31666 1574 ft 72 kts 45°
2026-04-28 18:46 63.75572 20.32492 1459 ft 66 kts 38°
2026-04-28 18:46 63.75899 20.33153 1354 ft 62 kts 31°
2026-04-28 18:46 63.76271 20.33482 1231 ft 63 kts
2026-04-28 18:46 63.76734 20.33350 1058 ft 69 kts 342°
2026-04-28 18:47 63.77121 20.32673 849 ft 71 kts 314°
2026-04-28 18:47 63.77423 20.31801 571 ft 69 kts 307°
2026-04-28 18:47 63.77779 20.31122 361 ft 65 kts 322°
2026-04-28 18:47 63.78099 20.30463 211 ft 60 kts 316°
2026-04-28 18:48 63.78404 20.29849 63 ft 56 kts 316°
2026-04-28 18:48 63.78652 20.29346 7 ft 39 kts 315°
2026-04-28 18:48 63.78818 20.29009 7 ft 21 kts 318°
2026-04-28 18:48 63.78868 20.28921 8 ft 7 kts 143°
2026-04-28 18:49 63.78840 20.28963 7 ft 2 kts 142°
2026-04-28 18:49 63.78831 20.28981 7 ft 3 kts 138°
2026-04-28 18:49 63.78793 20.29079 6 ft 10 kts 86°